createdAt,value
2022-11-14T00:02:16.299Z,84.74
2022-11-14T00:05:05.817Z,84.76
2022-11-14T00:07:55.400Z,84.71
2022-11-14T00:10:43.047Z,84.80
2022-11-14T00:13:30.584Z,84.89
2022-11-14T00:16:19.118Z,84.99
2022-11-14T00:19:09.022Z,84.99
2022-11-14T00:21:55.755Z,85.06
2022-11-14T00:24:42.746Z,85.15
2022-11-14T00:27:29.417Z,85.15
2022-11-14T00:30:18.447Z,85.24
2022-11-14T00:33:05.199Z,85.24
2022-11-14T00:35:54.652Z,85.28
2022-11-14T00:38:41.818Z,85.42
2022-11-14T00:41:29.187Z,85.37
2022-11-14T00:44:16.666Z,85.48
2022-11-14T00:47:03.632Z,85.35
2022-11-14T00:49:50.846Z,85.44
2022-11-14T00:52:38.190Z,85.43
2022-11-14T00:55:24.914Z,85.46
2022-11-14T00:58:12.591Z,85.74
2022-11-14T01:00:59.371Z,85.75
2022-11-14T01:03:50.516Z,85.75
2022-11-14T01:06:37.754Z,85.71
2022-11-14T01:09:25.003Z,85.83
2022-11-14T01:12:12.676Z,85.86
2022-11-14T01:15:00.163Z,85.85
2022-11-14T01:17:47.013Z,85.73
2022-11-14T01:20:34.053Z,85.71
2022-11-14T01:23:20.964Z,85.78
2022-11-14T01:26:13.874Z,85.60
2022-11-14T01:29:01.091Z,85.50
2022-11-14T01:31:50.318Z,85.66
2022-11-14T01:34:37.099Z,85.75
2022-11-14T01:37:24.264Z,85.51
2022-11-14T01:40:18.359Z,85.67
2022-11-14T01:43:11.069Z,85.57
2022-11-14T01:46:10.497Z,85.37
2022-11-14T01:49:22.498Z,85.41
2022-11-14T01:52:14.505Z,85.42
2022-11-14T01:55:06.279Z,85.30
2022-11-14T01:57:53.280Z,85.37
2022-11-14T02:00:42.110Z,85.29
2022-11-14T02:03:30.109Z,85.23
2022-11-14T02:06:22.538Z,85.16
2022-11-14T02:09:10.907Z,85.33
2022-11-14T02:12:03.734Z,85.34
2022-11-14T02:14:54.489Z,85.43
2022-11-14T02:17:43.146Z,85.57
2022-11-14T02:20:34.530Z,85.62
2022-11-14T02:23:29.977Z,85.72
2022-11-14T02:26:21.563Z,85.51
2022-11-14T02:29:10.401Z,85.56
2022-11-14T02:31:56.967Z,85.34
2022-11-14T02:34:43.627Z,85.29
2022-11-14T02:37:30.341Z,85.09
2022-11-14T02:40:17.813Z,85.05
2022-11-14T02:43:05.873Z,85.11
2022-11-14T02:45:54.558Z,84.89
2022-11-14T02:48:42.567Z,84.99
2022-11-14T02:51:29.878Z,84.92
2022-11-14T02:54:16.815Z,84.98
2022-11-14T02:57:03.837Z,84.75
2022-11-14T02:59:51.883Z,84.83
2022-11-14T03:02:38.502Z,84.84
2022-11-14T03:05:26.019Z,84.81
2022-11-14T03:08:13.097Z,84.79
2022-11-14T03:11:07.460Z,84.80
2022-11-14T03:13:54.836Z,84.82
2022-11-14T03:16:41.742Z,84.81
2022-11-14T03:19:28.307Z,84.77
2022-11-14T03:22:16.103Z,84.82
2022-11-14T03:25:03.223Z,84.81
2022-11-14T03:27:49.999Z,84.78
2022-11-14T03:30:37.006Z,84.86
2022-11-14T03:33:24.280Z,84.90
2022-11-14T03:36:11.220Z,85.10
2022-11-14T03:38:58.584Z,85.12
2022-11-14T03:41:46.477Z,85.08
2022-11-14T03:44:34.889Z,85.06
2022-11-14T03:47:21.937Z,85.00
2022-11-14T03:50:11.109Z,85.08
2022-11-14T03:52:58.883Z,85.09
2022-11-14T03:55:46.298Z,85.07
2022-11-14T03:58:33.251Z,85.04
2022-11-14T04:01:22.526Z,84.93
2022-11-14T04:04:11.195Z,84.96
2022-11-14T04:07:00.814Z,84.87
2022-11-14T04:09:47.497Z,84.98
2022-11-14T04:12:34.133Z,84.98
2022-11-14T04:15:21.406Z,84.93
2022-11-14T04:18:08.293Z,85.08
2022-11-14T04:20:55.408Z,85.02
2022-11-14T04:23:42.199Z,85.10
2022-11-14T04:26:30.628Z,85.20
2022-11-14T04:29:17.833Z,85.24
2022-11-14T04:32:05.962Z,85.16
2022-11-14T04:34:52.908Z,85.17
2022-11-14T04:37:39.652Z,85.30
2022-11-14T04:40:26.401Z,85.31
2022-11-14T04:43:13.860Z,85.40
2022-11-14T04:46:03.792Z,85.48
2022-11-14T04:48:51.245Z,85.53
2022-11-14T04:51:39.021Z,85.55
2022-11-14T04:54:50.813Z,85.71
2022-11-14T04:57:37.699Z,85.63
2022-11-14T05:00:26.717Z,85.61
2022-11-14T05:03:14.046Z,85.67
2022-11-14T05:06:02.352Z,85.69
2022-11-14T05:08:49.130Z,85.87
2022-11-14T05:11:37.230Z,85.79
2022-11-14T05:14:25.711Z,85.90
2022-11-14T05:17:16.215Z,85.91
2022-11-14T05:20:08.918Z,86.16
2022-11-14T05:23:20.341Z,86.30
2022-11-14T05:26:13.060Z,86.41
2022-11-14T05:29:02.272Z,86.26
2022-11-14T05:31:53.445Z,86.32
2022-11-14T05:34:40.731Z,86.35
2022-11-14T05:37:28.835Z,86.12
2022-11-14T05:40:17.275Z,86.05
2022-11-14T05:43:10.032Z,86.00
2022-11-14T05:46:03.236Z,86.11
2022-11-14T05:48:53.105Z,86.03
2022-11-14T05:51:50.782Z,86.08
2022-11-14T05:54:41.212Z,86.04
2022-11-14T05:57:29.181Z,86.04
2022-11-14T06:00:18.525Z,86.14
2022-11-14T06:03:07.418Z,86.10
2022-11-14T06:06:05.042Z,86.24
2022-11-14T06:08:54.958Z,86.13
2022-11-14T06:11:41.763Z,86.50
2022-11-14T06:14:30.707Z,86.17
2022-11-14T06:17:20.181Z,86.35
2022-11-14T06:20:09.225Z,86.19
2022-11-14T06:22:59.252Z,86.20
2022-11-14T06:25:55.161Z,86.23
2022-11-14T06:28:42.221Z,86.33
2022-11-14T06:31:29.549Z,86.38
2022-11-14T06:34:17.058Z,86.71
2022-11-14T06:37:08.684Z,86.62
2022-11-14T06:40:02.401Z,86.85
2022-11-14T06:42:57.988Z,86.95
2022-11-14T06:45:49.027Z,86.99
2022-11-14T06:48:42.981Z,86.91
2022-11-14T06:51:34.558Z,87.03
2022-11-14T06:54:22.516Z,87.03
2022-11-14T06:57:13.179Z,87.08
2022-11-14T07:00:23.737Z,87.05
2022-11-14T07:07:10.424Z,87.15
2022-11-14T07:09:58.988Z,86.60
2022-11-14T07:13:13.613Z,86.64
2022-11-14T07:16:09.635Z,87.12
2022-11-14T07:19:28.096Z,87.42
2022-11-14T07:22:53.007Z,87.44
2022-11-14T07:25:42.127Z,87.41
2022-11-14T07:28:32.228Z,87.41
2022-11-14T07:31:26.458Z,87.47
2022-11-14T07:34:12.133Z,87.53
2022-11-14T07:37:04.391Z,87.65
2022-11-14T07:39:51.095Z,87.65
2022-11-14T07:45:52.289Z,87.60
2022-11-14T07:49:03.805Z,87.68
2022-11-14T07:51:53.505Z,87.61
2022-11-14T07:54:40.450Z,87.81
2022-11-14T07:57:26.960Z,87.76
2022-11-14T08:03:26.021Z,87.91
2022-11-14T08:06:17.482Z,87.91
2022-11-14T08:09:06.931Z,88.00
2022-11-14T08:12:19.260Z,88.19
2022-11-14T08:15:14.652Z,88.23
2022-11-14T08:18:06.771Z,88.07
2022-11-14T08:20:59.561Z,88.06
2022-11-14T08:24:16.150Z,88.09
2022-11-14T08:27:03.581Z,87.90
2022-11-14T08:30:01.871Z,88.10
2022-11-14T08:32:48.116Z,88.08
2022-11-14T08:46:44.512Z,88.28
2022-11-14T08:49:33.985Z,88.15
2022-11-14T08:52:28.541Z,87.98
2022-11-14T08:55:16.734Z,88.06
2022-11-14T08:58:02.498Z,88.06
2022-11-14T09:00:48.088Z,88.15
2022-11-14T09:03:34.045Z,88.39
2022-11-14T09:06:20.015Z,88.30
2022-11-14T09:09:06.646Z,88.04
2022-11-14T09:12:14.194Z,88.04
2022-11-14T09:15:34.788Z,87.93
2022-11-14T09:18:50.658Z,87.94
2022-11-14T09:21:50.032Z,88.16
2022-11-14T09:24:38.147Z,88.14
2022-11-14T09:27:36.022Z,87.98
2022-11-14T09:30:23.240Z,87.66
2022-11-14T09:33:11.952Z,87.59
2022-11-14T09:36:10.469Z,87.56
2022-11-14T09:39:11.451Z,87.72
2022-11-14T09:42:18.738Z,87.80
2022-11-14T09:45:39.641Z,87.67
2022-11-14T09:49:03.721Z,87.73
2022-11-14T09:55:13.722Z,87.98
2022-11-14T09:58:01.530Z,87.82
2022-11-14T10:00:57.223Z,87.46
2022-11-14T10:07:19.762Z,87.55
2022-11-14T10:14:09.021Z,88.17
2022-11-14T10:17:18.402Z,88.14
2022-11-14T11:05:32.559Z,87.65
2022-11-14T11:08:44.360Z,87.67
2022-11-14T11:15:24.832Z,87.44
2022-11-14T11:18:32.953Z,87.43
2022-11-14T11:21:28.639Z,87.43
2022-11-14T11:24:35.081Z,87.12
2022-11-14T11:27:28.155Z,87.00
2022-11-14T11:30:31.033Z,86.87
2022-11-14T11:37:09.623Z,86.63
2022-11-14T11:40:02.546Z,86.74
2022-11-14T11:50:35.250Z,86.35
2022-11-14T11:53:47.009Z,86.40
2022-11-14T11:56:36.218Z,86.28
2022-11-14T11:59:42.032Z,86.26
2022-11-14T12:02:32.213Z,86.20
2022-11-14T12:05:45.119Z,86.18
2022-11-14T12:08:38.351Z,85.88
2022-11-14T12:11:44.890Z,86.14
2022-11-14T12:15:01.125Z,86.14
2022-11-14T12:18:00.292Z,85.83
2022-11-14T12:21:42.762Z,85.67
2022-11-14T12:24:43.951Z,85.62
2022-11-14T12:28:00.059Z,85.48
2022-11-14T12:31:00.302Z,85.36
2022-11-14T12:34:17.046Z,84.87
2022-11-14T12:37:16.676Z,84.66
2022-11-14T12:40:32.929Z,84.44
2022-11-14T12:43:40.184Z,84.06
2022-11-14T12:47:08.599Z,83.68
2022-11-14T12:50:01.215Z,83.32
2022-11-14T12:52:51.959Z,83.03
2022-11-14T12:55:57.278Z,82.48
2022-11-14T12:59:01.992Z,82.37
2022-11-14T13:01:53.335Z,82.13
2022-11-14T13:05:00.400Z,81.93
2022-11-14T13:08:34.865Z,81.89
2022-11-14T13:12:02.280Z,81.78
2022-11-14T13:19:56.889Z,81.54
2022-11-14T13:26:42.809Z,80.99
2022-11-14T13:29:39.624Z,80.93
2022-11-14T13:41:47.035Z,80.56
2022-11-14T13:45:41.667Z,80.49
2022-11-14T13:48:53.760Z,80.38
2022-11-14T13:52:09.314Z,80.00
2022-11-14T13:57:10.166Z,80.01
2022-11-14T13:59:41.187Z,79.99
2022-11-14T14:03:16.647Z,79.61
2022-11-14T14:06:52.996Z,79.65
2022-11-14T14:10:36.004Z,79.48
2022-11-14T14:14:08.944Z,79.42
2022-11-14T14:21:29.391Z,79.28
2022-11-14T14:28:45.217Z,79.01
2022-11-14T14:31:40.840Z,78.98
2022-11-14T14:34:31.013Z,78.89
2022-11-14T14:37:33.400Z,78.89
2022-11-14T14:40:28.253Z,78.79
2022-11-14T14:43:34.879Z,78.83
2022-11-14T14:46:34.398Z,78.52
2022-11-14T14:49:37.835Z,78.68
2022-11-14T14:52:57.320Z,78.60
2022-11-14T14:59:25.682Z,78.63
2022-11-14T15:06:30.005Z,78.44
2022-11-14T15:09:30.797Z,78.36
2022-11-14T15:12:20.610Z,78.42
2022-11-14T15:15:19.019Z,78.24
2022-11-14T15:18:09.058Z,78.37
2022-11-14T15:21:13.747Z,78.44
2022-11-14T15:24:14.593Z,78.37
2022-11-14T15:27:06.091Z,78.29
2022-11-14T15:30:09.652Z,78.16
2022-11-14T15:33:05.371Z,78.30
2022-11-14T15:36:06.888Z,78.48
2022-11-14T15:39:24.340Z,78.58
2022-11-14T15:42:32.022Z,78.54
2022-11-14T15:45:26.270Z,78.44
2022-11-14T15:48:21.338Z,78.37
2022-11-14T15:51:09.530Z,78.48
2022-11-14T15:53:58.265Z,78.51
2022-11-14T15:56:47.964Z,78.37
2022-11-14T15:59:35.186Z,78.62
2022-11-14T16:02:26.782Z,78.52
2022-11-14T16:05:22.680Z,78.55
2022-11-14T16:08:12.932Z,78.67
2022-11-14T16:11:02.036Z,79.00
2022-11-14T16:13:49.028Z,78.89
2022-11-14T16:16:36.047Z,78.69
2022-11-14T16:19:23.219Z,78.64
2022-11-14T16:22:17.899Z,78.66
2022-11-14T16:25:06.208Z,78.80
2022-11-14T16:27:56.460Z,79.00
2022-11-14T16:30:44.246Z,78.81
2022-11-14T16:33:32.024Z,78.88
2022-11-14T16:36:23.323Z,78.78
2022-11-14T16:39:18.165Z,78.95
2022-11-14T16:42:08.510Z,79.20
2022-11-14T16:45:50.746Z,79.05
2022-11-14T16:48:45.272Z,79.35
2022-11-14T16:51:51.525Z,79.53
2022-11-14T16:54:41.272Z,79.54
2022-11-14T16:57:56.537Z,79.52
2022-11-14T17:00:44.168Z,79.44
2022-11-14T17:03:34.301Z,79.69
2022-11-14T17:06:21.652Z,79.76
2022-11-14T17:09:08.869Z,79.69
2022-11-14T17:11:56.143Z,79.75
2022-11-14T17:14:51.806Z,79.85
2022-11-14T17:17:48.160Z,80.16
2022-11-14T17:20:38.930Z,80.23
2022-11-14T17:23:27.276Z,80.56
2022-11-14T17:26:14.297Z,80.45
2022-11-14T17:29:01.175Z,80.37
2022-11-14T17:31:51.471Z,80.37
2022-11-14T17:34:38.183Z,80.39
2022-11-14T17:37:28.824Z,80.48
2022-11-14T17:40:16.187Z,80.41
2022-11-14T17:43:03.272Z,80.52
2022-11-14T17:45:56.529Z,80.38
2022-11-14T17:48:47.352Z,80.39
2022-11-14T17:51:34.753Z,80.50
2022-11-14T17:54:27.040Z,80.55
2022-11-14T17:57:16.550Z,80.63
2022-11-14T18:00:09.542Z,80.80
2022-11-14T18:03:01.578Z,80.73
2022-11-14T18:05:58.830Z,80.94
2022-11-14T18:08:45.845Z,80.79
2022-11-14T18:11:35.126Z,80.75
2022-11-14T18:14:24.893Z,80.92
2022-11-14T18:17:13.684Z,80.94
2022-11-14T18:20:01.889Z,80.86
2022-11-14T18:22:50.626Z,80.78
2022-11-14T18:25:37.504Z,80.74
2022-11-14T18:28:24.509Z,80.78
2022-11-14T18:31:12.164Z,80.68
2022-11-14T18:33:58.909Z,80.74
2022-11-14T18:36:46.425Z,80.88
2022-11-14T18:39:33.284Z,80.83
2022-11-14T18:42:20.231Z,80.88
2022-11-14T18:45:57.607Z,80.99
2022-11-14T18:48:56.133Z,81.21
2022-11-14T18:52:05.497Z,81.37
2022-11-14T18:54:57.685Z,81.44
2022-11-14T18:57:45.306Z,81.61
2022-11-14T19:00:33.124Z,81.74
2022-11-14T19:03:21.130Z,81.65
2022-11-14T19:06:10.261Z,81.84
2022-11-14T19:09:08.151Z,81.77
2022-11-14T19:12:16.662Z,81.74
2022-11-14T19:15:04.260Z,81.94
2022-11-14T19:17:51.229Z,81.98
2022-11-14T19:20:39.731Z,81.97
2022-11-14T19:23:28.063Z,81.81
2022-11-14T19:26:15.146Z,82.02
2022-11-14T19:29:06.747Z,82.15
2022-11-14T19:31:54.666Z,82.04
2022-11-14T19:34:41.533Z,82.08
2022-11-14T19:37:30.031Z,82.10
2022-11-14T19:40:21.372Z,82.06
2022-11-14T19:43:11.881Z,82.02
2022-11-14T19:46:06.399Z,82.17
2022-11-14T19:48:58.784Z,82.16
2022-11-14T19:51:46.521Z,82.13
2022-11-14T19:54:33.541Z,82.37
2022-11-14T19:57:20.729Z,82.50
2022-11-14T20:00:09.265Z,82.54
2022-11-14T20:02:57.464Z,82.62
2022-11-14T20:05:46.151Z,82.65
2022-11-14T20:08:33.949Z,82.59
2022-11-14T20:11:22.270Z,82.56
2022-11-14T20:14:12.275Z,82.52
2022-11-14T20:16:59.692Z,82.52
2022-11-14T20:19:48.278Z,82.41
2022-11-14T20:22:42.105Z,82.34
2022-11-14T20:25:29.128Z,82.38
2022-11-14T20:28:16.483Z,82.54
2022-11-14T20:31:14.882Z,82.46
2022-11-14T20:34:05.030Z,82.44
2022-11-14T20:39:58.889Z,82.47
2022-11-14T20:42:49.235Z,82.39
2022-11-14T20:45:36.279Z,82.57
2022-11-14T20:48:24.212Z,82.49
2022-11-14T20:51:15.680Z,82.53
2022-11-14T20:54:03.520Z,82.47
2022-11-14T20:57:12.429Z,82.53
2022-11-14T21:00:13.639Z,82.68
2022-11-14T21:03:01.188Z,82.63
2022-11-14T21:05:51.351Z,82.73
2022-11-14T21:08:40.718Z,82.50
2022-11-14T21:11:28.445Z,82.48
2022-11-14T21:14:15.161Z,82.54
2022-11-14T21:17:02.175Z,82.73
2022-11-14T21:19:50.309Z,82.60
2022-11-14T21:22:40.252Z,82.55
2022-11-14T21:25:27.396Z,82.66
2022-11-14T21:28:15.278Z,82.63
2022-11-14T21:31:26.407Z,82.69
2022-11-14T21:34:15.769Z,82.63
2022-11-14T21:37:02.874Z,82.84
2022-11-14T21:39:49.267Z,82.65
2022-11-14T21:42:36.085Z,82.58
2022-11-14T21:45:22.920Z,82.67
2022-11-14T21:48:09.762Z,82.66
2022-11-14T21:51:07.641Z,82.62
2022-11-14T21:54:00.088Z,82.53
2022-11-14T21:56:46.564Z,82.62
2022-11-14T21:59:34.888Z,82.64
2022-11-14T22:02:40.857Z,82.64
2022-11-14T22:05:28.322Z,82.58
2022-11-14T22:08:16.026Z,82.56
2022-11-14T22:11:02.578Z,82.62
2022-11-14T22:13:50.125Z,82.65
2022-11-14T22:16:38.510Z,82.74
2022-11-14T22:19:28.327Z,82.71
2022-11-14T22:22:15.249Z,82.69
2022-11-14T22:25:03.429Z,82.56
2022-11-14T22:27:52.827Z,82.68
2022-11-14T22:30:40.732Z,82.65
2022-11-14T22:33:32.100Z,82.60
2022-11-14T22:36:25.344Z,82.59
2022-11-14T22:39:11.890Z,82.71
2022-11-14T22:41:58.495Z,82.63
2022-11-14T22:44:45.655Z,82.81
2022-11-14T22:47:32.462Z,82.70
2022-11-14T22:50:19.341Z,82.79
2022-11-14T22:53:06.548Z,82.76
2022-11-14T22:55:53.635Z,82.88
2022-11-14T22:58:42.336Z,82.85
2022-11-14T23:01:31.590Z,82.74
2022-11-14T23:04:18.582Z,82.81
2022-11-14T23:07:05.359Z,82.83
2022-11-14T23:09:52.346Z,83.02
2022-11-14T23:12:40.452Z,82.86
2022-11-14T23:15:27.309Z,82.82
2022-11-14T23:18:14.181Z,82.79
2022-11-14T23:21:08.500Z,82.81
2022-11-14T23:24:02.912Z,83.03
2022-11-14T23:26:49.574Z,82.81
2022-11-14T23:29:39.060Z,82.83
2022-11-14T23:32:30.279Z,83.08
2022-11-14T23:35:18.627Z,83.00
2022-11-14T23:38:06.104Z,83.18
2022-11-14T23:41:00.962Z,83.00
2022-11-14T23:43:50.868Z,83.04
2022-11-14T23:46:37.190Z,83.02
2022-11-14T23:49:24.270Z,83.17
2022-11-14T23:52:11.297Z,83.30
2022-11-14T23:54:57.934Z,83.57
2022-11-14T23:57:48.087Z,83.35
